Time;durP1;ratioP1;P1;durP2;ratioP2;P2;SDS_P1;SDS_P2;PMS_P1;PMS_P2;Temp;Humidity;BMP_temperature;BMP_pressure;BME280_temperature;BME280_humidity;BME280_pressure;Samples;Min_cycle;Max_cycle;Signal;HPM_P1;HPM_P2
2022/04/19 00:01:48;;;;;;;5.70;2.00;;;;;;;4.72;41.45;100131.61;117297;1186;22610;-45
2022/04/19 00:04:19;;;;;;;3.00;1.80;;;;;;;4.66;41.41;100135.04;117257;1186;21838;-45
2022/04/19 00:06:47;;;;;;;4.20;2.20;;;;;;;4.61;41.76;100128.92;117373;1185;23003;-48
2022/04/19 00:09:17;;;;;;;4.30;2.80;;;;;;;4.57;41.51;100123.15;117319;1186;23476;-51
2022/04/19 00:11:45;;;;;;;;;;;;;;;4.48;41.42;100131.41;117226;1186;23461;-48
2022/04/19 00:14:15;;;;;;;4.00;2.20;;;;;;;4.37;41.41;100135.48;117274;1186;23605;-45
2022/04/19 00:16:44;;;;;;;3.80;2.20;;;;;;;4.29;41.62;100134.89;117346;1186;23663;-54
2022/04/19 00:19:15;;;;;;;3.30;1.90;;;;;;;4.22;41.50;100133.08;117252;1182;21921;-47
2022/04/19 00:21:44;;;;;;;4.40;2.20;;;;;;;4.14;41.68;100132.84;117291;1186;23634;-54
2022/04/19 00:24:12;;;;;;;4.00;2.20;;;;;;;4.05;41.58;100130.83;117276;1186;23540;-54
2022/04/19 00:26:41;;;;;;;3.50;2.30;;;;;;;3.98;41.75;100122.60;117299;1186;24716;-45
2022/04/19 00:29:09;;;;;;;3.50;2.00;;;;;;;3.94;41.82;100119.80;117338;1183;21903;-53
2022/04/19 00:31:37;;;;;;;3.80;2.20;;;;;;;3.88;41.77;100115.73;117317;1186;23586;-53
2022/04/19 00:34:05;;;;;;;6.10;2.60;;;;;;;3.79;41.85;100110.94;117273;1186;23631;-45
2022/04/19 00:36:35;;;;;;;3.40;2.50;;;;;;;3.69;41.71;100107.36;117255;1185;24163;-45
2022/04/19 00:39:04;;;;;;;4.70;2.90;;;;;;;3.62;41.91;100101.36;117276;1186;23614;-54
2022/04/19 00:41:33;;;;;;;5.10;2.70;;;;;;;3.56;41.88;100101.83;117242;1186;23518;-45
2022/04/19 00:44:01;;;;;;;5.40;2.70;;;;;;;3.52;41.92;100108.89;117267;1186;23453;-46
2022/04/19 00:46:29;;;;;;;4.60;2.70;;;;;;;3.49;41.82;100105.05;117314;1186;23698;-53
2022/04/19 00:49:13;;;;;;;4.30;2.70;;;;;;;3.45;42.00;100103.09;117219;1186;23656;-45
2022/04/19 00:51:41;;;;;;;5.90;2.90;;;;;;;3.43;42.06;100106.52;117328;1186;23631;-46
2022/04/19 00:54:10;;;;;;;5.50;2.50;;;;;;;3.40;42.03;100107.19;117269;1186;23552;-45
2022/04/19 00:56:53;;;;;;;4.30;2.70;;;;;;;3.37;41.96;100101.24;117327;1186;24160;-54
2022/04/19 00:59:22;;;;;;;4.80;2.80;;;;;;;3.34;42.13;100103.64;117342;1185;22008;-45
2022/04/19 01:02:00;;;;;;;5.20;2.90;;;;;;;3.29;42.11;100102.73;117277;1186;23617;-45
2022/04/19 01:04:30;;;;;;;;;;;;;;;3.26;42.24;100105.11;117305;1186;23541;-45
2022/04/19 01:06:59;;;;;;;4.90;2.60;;;;;;;3.26;42.21;100104.77;117291;1185;21884;-54
2022/04/19 01:09:27;;;;;;;4.70;2.80;;;;;;;3.27;42.25;100106.50;117253;1186;23743;-45
2022/04/19 01:14:43;;;;;;;4.80;2.50;;;;;;;3.25;42.27;100107.87;117331;1186;23649;-45
2022/04/19 01:17:14;;;;;;;5.60;3.00;;;;;;;3.21;42.36;100109.19;117265;1185;24149;-54
2022/04/19 01:19:42;;;;;;;6.10;2.80;;;;;;;3.18;42.26;100109.67;117297;1186;21894;-45
2022/04/19 01:22:12;;;;;;;4.90;2.60;;;;;;;3.16;42.31;100107.91;117128;1185;23475;-45
2022/04/19 01:24:42;;;;;;;4.60;2.80;;;;;;;3.16;42.43;100104.79;117175;1186;24166;-45
2022/04/19 01:27:13;;;;;;;4.40;2.60;;;;;;;3.14;42.31;100105.28;117227;1186;22952;-53
2022/04/19 01:29:42;;;;;;;5.90;2.70;;;;;;;3.11;42.43;100103.34;117290;1185;21854;-46
2022/04/19 01:32:11;;;;;;;5.00;2.50;;;;;;;3.09;42.40;100099.50;117150;1188;23001;-52
2022/04/19 01:35:12;;;;;;;6.30;2.80;;;;;;;3.07;42.42;100090.81;117270;1185;21899;-54
2022/04/19 01:37:43;;;;;;;4.50;2.80;;;;;;;3.04;42.42;100084.19;117280;1185;23486;-52
2022/04/19 01:40:17;;;;;;;5.10;2.80;;;;;;;3.03;42.52;100080.52;117282;1188;22927;-54
2022/04/19 01:43:02;;;;;;;4.70;2.90;;;;;;;2.99;42.56;100083.41;117088;1185;23488;-45
2022/04/19 01:45:32;;;;;;;4.90;2.50;;;;;;;2.96;42.46;100078.87;117332;1185;22175;-53
2022/04/19 01:48:01;;;;;;;4.60;2.60;;;;;;;2.95;42.55;100076.08;117283;1185;23499;-54
2022/04/19 01:50:43;;;;;;;4.70;2.80;;;;;;;2.95;42.65;100074.00;117265;1186;23451;-45
2022/04/19 01:53:12;;;;;;;5.90;2.90;;;;;;;2.97;42.60;100074.89;117373;1186;23593;-54
2022/04/19 01:55:42;;;;;;;;;;;;;;;2.98;42.65;100078.20;117398;1186;22917;-53
2022/04/19 01:58:10;;;;;;;5.50;3.30;;;;;;;3.00;42.82;100077.88;117396;1184;23000;-46
2022/04/19 02:00:38;;;;;;;4.60;2.40;;;;;;;3.01;42.76;100080.50;117317;1187;23666;-53
2022/04/19 02:03:09;;;;;;;5.60;2.60;;;;;;;3.01;42.62;100077.20;117205;1189;21852;-53
2022/04/19 02:05:38;;;;;;;4.70;2.80;;;;;;;2.96;42.78;100078.52;117299;1189;23623;-53
2022/04/19 02:08:06;;;;;;;4.80;3.00;;;;;;;2.93;42.74;100081.42;117299;1186;23612;-54
2022/04/19 02:10:35;;;;;;;4.90;2.80;;;;;;;2.92;42.83;100079.67;117288;1186;22965;-46
2022/04/19 02:13:13;;;;;;;5.40;2.90;;;;;;;2.89;42.75;100078.42;117351;1185;21923;-55
2022/04/19 02:15:43;;;;;;;;;;;;;;;2.87;42.86;100078.05;117265;1183;21854;-46
2022/04/19 02:18:32;;;;;;;4.80;2.50;;;;;;;2.83;42.87;100079.21;117179;1188;21853;-54
2022/04/19 02:21:02;;;;;;;4.10;2.50;;;;;;;2.83;42.87;100079.21;117226;1186;23600;-46
2022/04/19 02:23:50;;;;;;;4.60;2.90;;;;;;;2.84;42.93;100079.92;117187;1188;21865;-55
2022/04/19 02:26:20;;;;;;;3.90;2.40;;;;;;;2.81;42.95;100077.28;117308;1185;21976;-55
2022/04/19 02:28:49;;;;;;;4.80;2.70;;;;;;;2.78;42.83;100081.21;117278;1186;21870;-54
2022/04/19 02:31:18;;;;;;;4.80;2.50;;;;;;;2.75;42.86;100080.48;117392;1186;23553;-46
2022/04/19 02:33:48;;;;;;;4.80;2.50;;;;;;;2.73;42.90;100079.76;117296;1185;22728;-46
2022/04/19 02:36:34;;;;;;;4.40;2.60;;;;;;;2.75;43.02;100076.65;117229;1186;22807;-55
2022/04/19 02:39:02;;;;;;;4.20;2.40;;;;;;;2.75;43.03;100074.77;117277;1186;22728;-55
2022/04/19 02:41:35;;;;;;;5.30;3.10;;;;;;;2.74;43.06;100074.21;117309;1186;23581;-46
2022/04/19 02:44:04;;;;;;;5.50;2.50;;;;;;;2.69;43.04;100069.82;117279;1185;22816;-45
2022/04/19 02:46:52;;;;;;;4.80;2.90;;;;;;;2.65;42.98;100068.37;117284;1186;21870;-55
2022/04/19 02:49:22;;;;;;;4.40;2.70;;;;;;;2.61;43.06;100069.54;117355;1185;22309;-46
2022/04/19 02:51:50;;;;;;;5.00;2.60;;;;;;;2.64;43.33;100073.91;117294;1186;21858;-55
2022/04/19 02:54:19;;;;;;;5.60;2.70;;;;;;;2.71;43.35;100072.96;117099;1186;23375;-54
2022/04/19 02:57:04;;;;;;;5.40;2.90;;;;;;;2.77;43.28;100077.05;117253;1186;22645;-55
2022/04/19 02:59:35;;;;;;;4.60;2.90;;;;;;;2.79;43.21;100076.03;117186;1186;21867;-46
2022/04/19 03:02:05;;;;;;;4.60;2.80;;;;;;;2.82;43.48;100072.10;117223;1187;22931;-54
2022/04/19 03:04:34;;;;;;;5.80;2.70;;;;;;;2.84;43.35;100078.88;117239;1189;21875;-46
2022/04/19 03:07:02;;;;;;;3.80;2.60;;;;;;;2.87;43.44;100082.73;117314;1186;23648;-47
2022/04/19 03:09:48;;;;;;;5.90;2.70;;;;;;;2.87;43.28;100086.54;117298;1185;23576;-47
2022/04/19 03:12:18;;;;;;;4.90;2.50;;;;;;;2.87;43.30;100090.17;117287;1186;22842;-55
2022/04/19 03:14:46;;;;;;;5.90;2.70;;;;;;;2.87;43.42;100087.05;117383;1186;23454;-54
2022/04/19 03:17:14;;;;;;;4.80;3.00;;;;;;;2.88;43.50;100092.10;117284;1185;23576;-55
2022/04/19 03:19:43;;;;;;;4.80;3.00;;;;;;;2.90;43.43;100096.27;117320;1185;24176;-56
2022/04/19 03:22:14;;;;;;;5.20;3.10;;;;;;;2.89;43.40;100104.08;117182;1186;21855;-55
2022/04/19 03:27:41;;;;;;;4.70;2.60;;;;;;;2.83;43.41;100113.70;117341;1185;23449;-55
2022/04/19 03:30:12;;;;;;;;;;;;;;;2.81;43.53;100118.52;117333;1186;23458;-55
2022/04/19 03:32:44;;;;;;;19.50;3.70;;;;;;;2.82;43.53;100122.17;117311;1186;21914;-56
2022/04/19 03:35:12;;;;;;;8.30;3.70;;;;;;;2.86;43.67;100127.26;117346;1186;23646;-55
2022/04/19 03:37:56;;;;;;;8.00;3.70;;;;;;;2.91;43.61;100130.09;117300;1186;23491;-55
2022/04/19 03:40:25;;;;;;;8.10;4.00;;;;;;;2.95;43.66;100128.95;117368;1185;21899;-47
2022/04/19 03:42:54;;;;;;;8.50;3.60;;;;;;;3.03;43.68;100133.92;117323;1186;23604;-47
2022/04/19 03:45:42;;;;;;;6.80;3.20;;;;;;;3.13;43.94;100133.02;117254;1186;22872;-57
2022/04/19 03:48:13;;;;;;;8.40;3.30;;;;;;;3.21;43.97;100130.35;117279;1186;23485;-57
2022/04/19 03:50:45;;;;;;;5.30;3.70;;;;;;;3.27;44.05;100139.45;117333;1185;24165;-57
2022/04/19 03:53:14;;;;;;;;;;;;;;;3.30;43.87;100139.14;117268;1186;21837;-56
2022/04/19 03:55:42;;;;;;;10.80;3.90;;;;;;;3.34;43.91;100138.84;117229;1186;23557;-47
2022/04/19 03:58:10;;;;;;;8.20;3.50;;;;;;;3.41;44.03;100141.02;117334;1186;23473;-57
2022/04/19 04:00:40;;;;;;;8.20;3.60;;;;;;;3.50;44.21;100142.53;117277;1185;23553;-57
2022/04/19 04:03:09;;;;;;;7.20;3.40;;;;;;;3.61;44.32;100144.92;117492;1186;24162;-47
2022/04/19 04:05:41;;;;;;;5.70;2.80;;;;;;;3.70;44.29;100140.86;117313;1185;21886;-47
2022/04/19 04:08:29;;;;;;;6.10;3.40;;;;;;;3.78;44.38;100139.05;117274;1186;23549;-47
2022/04/19 04:10:58;;;;;;;5.00;3.10;;;;;;;3.84;44.32;100139.13;117237;1186;22950;-47
2022/04/19 04:13:47;;;;;;;6.20;3.30;;;;;;;3.93;44.38;100138.35;117261;1186;21856;-47
2022/04/19 04:16:15;;;;;;;5.00;2.80;;;;;;;4.05;44.48;100138.64;117293;1186;23553;-58
2022/04/19 04:18:44;;;;;;;5.60;3.60;;;;;;;4.19;44.63;100140.70;117317;1185;22727;-57
2022/04/19 04:21:12;;;;;;;5.80;3.10;;;;;;;4.33;44.50;100135.63;117300;1186;24127;-57
2022/04/19 04:23:41;;;;;;;6.80;3.20;;;;;;;4.48;44.71;100134.71;117302;1186;23555;-47
2022/04/19 04:26:09;;;;;;;7.00;3.20;;;;;;;4.63;44.81;100130.48;117358;1186;22593;-57
2022/04/19 04:28:57;;;;;;;4.60;2.80;;;;;;;4.81;44.68;100130.98;117196;1186;21854;-45
2022/04/19 04:31:25;;;;;;;4.80;3.00;;;;;;;4.95;44.92;100131.59;117731;1185;23653;-46
2022/04/19 04:33:54;;;;;;;5.00;3.30;;;;;;;5.10;45.09;100126.31;117305;1186;24170;-55
2022/04/19 04:36:42;;;;;;;5.40;3.10;;;;;;;5.32;45.01;100126.25;117291;1189;21856;-54
2022/04/19 04:39:10;;;;;;;4.80;3.20;;;;;;;5.52;45.20;100126.86;117291;1186;24241;-56
2022/04/19 04:41:39;;;;;;;5.30;3.00;;;;;;;5.73;45.10;100125.73;117307;1185;23541;-55
2022/04/19 04:44:08;;;;;;;5.30;3.30;;;;;;;5.94;45.25;100125.63;117235;1185;21915;-48
2022/04/19 04:49:36;;;;;;;4.80;3.10;;;;;;;6.36;45.37;100126.42;117346;1185;24164;-47
2022/04/19 04:52:09;;;;;;;4.60;3.00;;;;;;;6.58;45.41;100126.25;117281;1185;22903;-57
2022/04/19 04:54:39;;;;;;;4.60;2.80;;;;;;;6.78;45.28;100129.39;117313;1186;23582;-56
2022/04/19 04:57:27;;;;;;;10.50;3.30;;;;;;;6.99;45.28;100126.04;117232;1186;21842;-48
2022/04/19 04:59:56;;;;;;;4.70;3.00;;;;;;;7.19;45.49;100125.66;117357;1186;24175;-47
2022/04/19 05:02:25;;;;;;;4.80;3.10;;;;;;;7.37;45.46;100122.80;117218;1185;23741;-56
2022/04/19 05:04:53;;;;;;;5.40;2.60;;;;;;;7.53;45.49;100120.31;117329;1185;23906;-57
2022/04/19 05:07:22;;;;;;;3.70;2.50;;;;;;;7.70;45.27;100119.54;117300;1186;23553;-56
2022/04/19 05:09:58;;;;;;;3.70;2.20;;;;;;;7.90;45.22;100119.27;117296;1186;23024;-47
2022/04/19 05:12:27;;;;;;;5.20;3.00;;;;;;;8.10;45.23;100119.33;117329;1185;22832;-57
2022/04/19 05:14:56;;;;;;;4.00;2.30;;;;;;;8.29;45.36;100121.13;117102;1186;24279;-57
2022/04/19 05:17:24;;;;;;;3.30;2.10;;;;;;;8.46;45.30;100118.73;117274;1186;22611;-47
2022/04/19 05:19:54;;;;;;;4.10;2.40;;;;;;;8.61;45.23;100117.06;117276;1186;22660;-57
2022/04/19 05:22:37;;;;;;;11.50;6.20;;;;;;;8.81;45.18;100117.23;117256;1186;23570;-47
2022/04/19 05:25:07;;;;;;;6.60;4.00;;;;;;;8.94;45.03;100114.67;117251;1186;21853;-56
2022/04/19 05:27:37;;;;;;;4.40;2.30;;;;;;;9.09;44.83;100110.48;117295;1186;23570;-48
2022/04/19 05:30:07;;;;;;;6.30;3.00;;;;;;;9.22;44.89;100107.56;117337;1185;24172;-48
2022/04/19 05:32:37;;;;;;;;;;;;;;;9.34;44.74;100103.74;117266;1185;23538;-56
2022/04/19 05:35:08;;;;;;;6.50;2.70;;;;;;;9.44;44.69;100100.83;117279;1186;23555;-56
2022/04/19 05:37:37;;;;;;;4.70;2.10;;;;;;;9.56;44.71;100093.48;117272;1185;23557;-48
2022/04/19 05:40:06;;;;;;;3.30;1.90;;;;;;;9.68;44.62;100084.92;117262;1185;21937;-56
2022/04/19 05:42:34;;;;;;;4.40;2.30;;;;;;;9.82;44.63;100077.55;117341;1185;21859;-56
2022/04/19 05:45:03;;;;;;;3.50;2.50;;;;;;;9.95;44.54;100065.98;117289;1185;23553;-47
2022/04/19 05:47:35;;;;;;;4.80;2.40;;;;;;;10.09;44.48;100061.40;117251;1185;21860;-56
2022/04/19 05:50:04;;;;;;;3.30;2.00;;;;;;;10.18;44.36;100060.54;117335;1184;23547;-56
2022/04/19 05:52:33;;;;;;;4.60;2.60;;;;;;;10.28;44.25;100064.60;117243;1187;21852;-56
2022/04/19 05:55:21;;;;;;;4.10;2.50;;;;;;;10.40;44.27;100062.32;117206;1186;22086;-55
2022/04/19 05:57:49;;;;;;;5.30;3.10;;;;;;;10.52;44.11;100064.94;117231;1186;23478;-56
2022/04/19 06:00:30;;;;;;;;;;;;;;;10.67;44.02;100067.31;117264;1185;21889;-49
2022/04/19 06:05:48;;;;;;;4.30;2.00;;;;;;;10.93;43.92;100072.45;117282;1186;23708;-48
2022/04/19 06:08:16;;;;;;;5.50;2.90;;;;;;;11.11;43.87;100080.19;117283;1185;23576;-55
2022/04/19 06:10:49;;;;;;;3.80;2.00;;;;;;;11.20;43.66;100079.52;117205;1186;23598;-47
2022/04/19 06:13:38;;;;;;;4.40;2.50;;;;;;;11.37;43.59;100078.63;117192;1186;22179;-56
2022/04/19 06:16:07;;;;;;;2.60;1.60;;;;;;;11.57;43.74;100074.71;117240;1185;21855;-52
2022/04/19 06:18:55;;;;;;;4.30;2.50;;;;;;;11.73;43.34;100077.52;117283;1183;22946;-47
2022/04/19 06:21:23;;;;;;;3.80;2.20;;;;;;;11.80;43.31;100074.02;117342;1186;21880;-55
2022/04/19 06:23:52;;;;;;;4.40;1.80;;;;;;;11.94;43.56;100066.17;117327;1186;24265;-47
2022/04/19 06:26:20;;;;;;;3.80;1.90;;;;;;;12.17;43.67;100059.86;117340;1185;22940;-48
2022/04/19 06:28:48;;;;;;;3.90;1.80;;;;;;;12.39;43.54;100049.13;117322;1185;22649;-56
2022/04/19 06:31:17;;;;;;;2.50;1.60;;;;;;;12.55;43.12;100048.91;117342;1186;23462;-55
2022/04/19 06:34:11;;;;;;;5.30;1.80;;;;;;;12.73;43.18;100047.91;117257;1186;22938;-47
2022/04/19 06:36:41;;;;;;;2.90;1.30;;;;;;;12.79;42.81;100048.98;117262;1188;21865;-47
2022/04/19 06:39:10;;;;;;;3.60;1.30;;;;;;;12.87;42.48;100046.11;117323;1185;23579;-56
2022/04/19 06:41:54;;;;;;;3.70;1.60;;;;;;;12.96;42.84;100043.06;117307;1186;23432;-55
2022/04/19 06:44:22;;;;;;;4.10;1.60;;;;;;;13.09;42.52;100047.46;117338;1185;23690;-48
2022/04/19 06:46:51;;;;;;;4.80;1.90;;;;;;;13.09;42.36;100050.25;117280;1186;23569;-57
2022/04/19 06:49:20;;;;;;;6.10;2.50;;;;;;;13.07;42.31;100052.09;117340;1186;24162;-57
2022/04/19 06:51:49;;;;;;;7.10;4.10;;;;;;;13.14;42.32;100050.84;117265;1185;24266;-57
2022/04/19 06:54:17;;;;;;;3.20;1.60;;;;;;;13.22;41.79;100051.69;117245;1184;23701;-57
2022/04/19 06:56:46;;;;;;;3.50;1.90;;;;;;;13.23;41.63;100047.77;117442;1185;23481;-48
2022/04/19 06:59:14;;;;;;;3.20;1.60;;;;;;;13.24;41.17;100042.46;117505;1184;23580;-56
2022/04/19 07:01:44;;;;;;;2.60;1.40;;;;;;;13.25;41.42;100043.83;117391;1186;23496;-48
2022/04/19 07:04:12;;;;;;;5.00;2.30;;;;;;;13.29;41.15;100048.13;117391;1185;22507;-48
2022/04/19 07:06:41;;;;;;;8.20;3.00;;;;;;;13.31;40.76;100048.94;117370;1186;23513;-57
2022/04/19 07:09:09;;;;;;;2.60;1.40;;;;;;;13.34;41.37;100042.68;117334;1186;21947;-49
2022/04/19 07:11:38;;;;;;;3.10;1.40;;;;;;;13.42;41.08;100048.14;117410;1186;23461;-48
2022/04/19 07:14:06;;;;;;;3.90;1.40;;;;;;;13.46;41.03;100042.38;117377;1185;23486;-49
2022/04/19 07:16:48;;;;;;;2.60;1.40;;;;;;;13.56;41.23;100042.96;117438;1184;23548;-57
2022/04/19 07:19:17;;;;;;;3.60;1.50;;;;;;;13.73;41.32;100041.06;117412;1185;22615;-57
2022/04/19 07:27:44;;;;;;;4.20;1.60;;;;;;;14.24;41.19;100033.63;117221;1185;22179;-56
2022/04/19 07:30:13;;;;;;;2.70;1.40;;;;;;;14.45;41.38;100028.50;117245;1186;24353;-58
2022/04/19 07:32:42;;;;;;;3.00;1.60;;;;;;;14.54;40.45;100028.73;117384;1185;24151;-49
2022/04/19 07:35:11;;;;;;;10.30;4.30;;;;;;;14.59;40.59;100031.23;117335;1185;21858;-58
2022/04/19 07:37:56;;;;;;;5.30;2.20;;;;;;;14.63;39.95;100032.66;117260;1186;23452;-48
2022/04/19 07:40:24;;;;;;;6.50;2.00;;;;;;;14.67;40.41;100021.05;117327;1186;23474;-49
2022/04/19 07:42:53;;;;;;;2.60;1.30;;;;;;;14.84;40.22;100029.86;117338;1186;24164;-57
2022/04/19 07:45:21;;;;;;;2.90;1.20;;;;;;;15.00;40.72;100025.76;117350;1186;24261;-49
2022/04/19 07:47:49;;;;;;;1.50;1.00;;;;;;;15.17;40.72;100028.48;117327;1186;23451;-56
2022/04/19 07:50:21;;;;;;;4.00;1.40;;;;;;;15.35;40.55;100023.23;117300;1185;23554;-57
2022/04/19 07:52:50;;;;;;;4.00;0.90;;;;;;;15.43;40.79;100016.92;117286;1186;21907;-56
2022/04/19 07:55:18;;;;;;;2.10;1.30;;;;;;;15.51;39.76;100024.21;117322;1185;21902;-50
2022/04/19 07:57:47;;;;;;;4.30;1.40;;;;;;;15.52;39.66;100018.86;117261;1186;22631;-56
2022/04/19 08:00:17;;;;;;;2.80;1.30;;;;;;;15.52;40.15;100022.59;117273;1186;23642;-49
2022/04/19 08:02:46;;;;;;;2.30;0.90;;;;;;;15.62;40.07;100021.17;118482;1186;23566;-54
2022/04/19 08:05:34;;;;;;;3.40;1.30;;;;;;;15.73;40.22;100014.89;118234;1186;21919;-54
2022/04/19 08:08:03;;;;;;;6.50;1.20;;;;;;;15.86;40.38;100015.81;117211;1186;23485;-46
2022/04/19 08:10:51;;;;;;;3.70;1.30;;;;;;;15.97;39.87;100005.12;117211;1186;21861;-46
2022/04/19 08:13:20;;;;;;;2.10;1.20;;;;;;;15.99;39.39;100002.02;117128;1186;23480;-46
2022/04/19 08:15:48;;;;;;;2.90;1.20;;;;;;;16.03;39.88;99999.76;117342;1186;23556;-46
2022/04/19 08:18:18;;;;;;;3.80;1.10;;;;;;;16.21;40.19;99995.83;117185;1186;22932;-45
2022/04/19 08:20:47;;;;;;;;;;;;;;;16.45;40.24;99994.43;117324;1186;22971;-48
2022/04/19 08:23:16;;;;;;;2.10;1.10;;;;;;;16.68;40.07;99989.38;117296;1186;23478;-55
2022/04/19 08:26:04;;;;;;;3.70;1.40;;;;;;;16.86;40.07;99981.70;117325;1186;24172;-57
2022/04/19 08:28:33;;;;;;;2.60;1.00;;;;;;;16.94;39.96;99987.20;117250;1186;23478;-56
2022/04/19 08:31:01;;;;;;;2.60;1.50;;;;;;;17.02;39.29;99980.11;117279;1186;23557;-49
2022/04/19 08:33:30;;;;;;;2.30;1.30;;;;;;;17.08;39.45;99970.82;117326;1186;21885;-49
2022/04/19 08:36:16;;;;;;;3.20;1.20;;;;;;;17.18;39.16;99971.23;117355;1186;24164;-49
2022/04/19 08:38:46;;;;;;;3.80;1.20;;;;;;;17.19;39.19;99972.27;117273;1186;23552;-48
2022/04/19 08:41:18;;;;;;;2.90;1.40;;;;;;;17.31;39.43;99973.48;117200;1186;22003;-57
2022/04/19 08:43:47;;;;;;;2.30;1.20;;;;;;;17.44;39.05;99970.74;117164;1187;23593;-49
2022/04/19 08:46:15;;;;;;;5.50;1.60;;;;;;;17.58;39.36;99974.89;117347;1185;22768;-48
2022/04/19 08:48:46;;;;;;;3.60;1.40;;;;;;;17.78;39.43;99971.09;117154;1185;21855;-48
2022/04/19 08:51:15;;;;;;;3.10;1.20;;;;;;;17.91;39.31;99965.31;117195;1185;23557;-48
2022/04/19 08:59:36;;;;;;;2.30;1.10;;;;;;;18.34;38.89;99955.72;117281;1185;24311;-57
2022/04/19 09:02:05;;;;;;;3.80;1.60;;;;;;;18.45;38.25;99963.00;117276;1185;23473;-57
2022/04/19 09:04:54;;;;;;;3.60;1.70;;;;;;;18.39;38.05;99962.58;117288;1186;21958;-57
2022/04/19 09:07:35;;;;;;;2.80;1.10;;;;;;;18.47;38.53;99964.30;117394;1186;21857;-56
2022/04/19 09:10:07;;;;;;;2.60;1.10;;;;;;;18.60;38.12;99967.01;117294;1186;23615;-57
2022/04/19 09:12:35;;;;;;;3.40;1.20;;;;;;;18.47;38.01;99959.16;117253;1180;22927;-49
2022/04/19 09:15:08;;;;;;;2.10;1.20;;;;;;;18.49;38.15;99960.13;117329;1184;21851;-49
2022/04/19 09:17:48;;;;;;;4.60;1.40;;;;;;;18.57;38.38;99959.88;117235;1186;23474;-57
2022/04/19 09:20:19;;;;;;;2.60;1.40;;;;;;;18.75;38.63;99957.70;117201;1186;21852;-57
2022/04/19 09:23:05;;;;;;;5.50;1.70;;;;;;;18.98;38.58;99959.34;117319;1185;21859;-49
2022/04/19 09:25:34;;;;;;;5.10;1.90;;;;;;;19.07;38.25;99951.95;117326;1183;21863;-49
2022/04/19 09:28:05;;;;;;;12.30;6.10;;;;;;;18.96;37.94;99957.84;117249;1186;23455;-50
2022/04/19 09:30:37;;;;;;;4.70;1.70;;;;;;;18.72;37.83;99953.41;117304;1186;21976;-48
2022/04/19 09:33:18;;;;;;;3.00;1.30;;;;;;;18.66;37.83;99957.10;117270;1185;22805;-47
2022/04/19 09:35:54;;;;;;;3.20;1.10;;;;;;;18.72;37.98;99948.79;117310;1186;21854;-49
2022/04/19 09:38:38;;;;;;;2.10;1.00;;;;;;;18.74;37.35;99949.92;117214;1184;22932;-50
2022/04/19 09:41:08;;;;;;;3.30;1.10;;;;;;;18.89;37.63;99956.45;117193;1186;22893;-48
2022/04/19 09:44:07;;;;;;;2.90;0.90;;;;;;;19.23;38.24;99956.20;117291;1185;23066;-49
2022/04/19 09:46:38;;;;;;;4.40;1.40;;;;;;;19.51;37.70;99952.89;117112;1186;21897;-48
2022/04/19 09:49:07;;;;;;;3.10;1.30;;;;;;;19.56;37.54;99956.53;117114;1185;24169;-56
2022/04/19 09:51:36;;;;;;;3.20;1.10;;;;;;;19.56;36.83;99954.77;117127;1185;23602;-55
2022/04/19 09:54:05;;;;;;;4.10;1.00;;;;;;;19.60;36.88;99961.66;117900;1183;23553;-57
2022/04/19 09:56:36;;;;;;;3.00;1.20;;;;;;;19.59;36.84;99955.64;117325;1188;21861;-48
2022/04/19 09:59:15;;;;;;;;;;;;;;;19.75;37.33;99949.56;117432;1186;23630;-48
2022/04/19 10:10:31;;;;;;;3.00;1.20;;;;;;;20.30;35.67;99954.60;117044;1189;23557;-48
2022/04/19 10:13:06;;;;;;;2.40;1.10;;;;;;;20.30;36.58;99956.44;117247;1181;23673;-48
2022/04/19 10:15:54;;;;;;;1.50;1.00;;;;;;;20.47;36.47;99958.43;117102;1185;23451;-49
2022/04/19 10:18:22;;;;;;;1.60;0.70;;;;;;;20.68;36.63;99958.92;117268;1185;24188;-55
2022/04/19 10:21:15;;;;;;;3.20;1.40;;;;;;;20.90;36.69;99958.70;117387;1185;21852;-56
2022/04/19 10:23:44;;;;;;;3.10;1.10;;;;;;;21.13;36.25;99962.48;117289;1185;23564;-56
2022/04/19 10:26:31;;;;;;;3.00;1.10;;;;;;;21.18;35.67;99968.20;117303;1186;24015;-56
2022/04/19 10:29:18;;;;;;;3.10;1.10;;;;;;;21.19;36.12;99967.59;117100;1186;21867;-57
2022/04/19 10:31:59;;;;;;;3.20;1.20;;;;;;;21.37;36.35;99963.62;117230;1186;23554;-48
2022/04/19 10:34:29;;;;;;;2.00;1.00;;;;;;;21.43;35.95;99953.23;117327;1186;21856;-48
2022/04/19 10:37:26;;;;;;;2.20;1.20;;;;;;;21.31;35.66;99948.65;117281;1186;21857;-49
2022/04/19 10:39:59;;;;;;;1.80;1.00;;;;;;;21.14;35.91;99952.18;117268;1186;22509;-50
2022/04/19 10:42:36;;;;;;;2.50;1.30;;;;;;;20.92;35.61;99949.98;117241;1186;23474;-49
2022/04/19 10:45:25;;;;;;;4.40;1.30;;;;;;;21.07;35.97;99951.92;117241;1186;24176;-49
2022/04/19 10:48:02;;;;;;;2.30;1.40;;;;;;;21.23;35.64;99953.58;117040;1185;21958;-49
2022/04/19 10:50:40;;;;;;;6.90;1.90;;;;;;;21.22;35.75;99953.63;117161;1186;22826;-49
2022/04/19 10:53:10;;;;;;;5.80;1.90;;;;;;;21.31;35.81;99951.88;117222;1186;23651;-57
2022/04/19 10:55:56;;;;;;;2.00;1.10;;;;;;;21.37;35.80;99942.58;117247;1185;23579;-57
2022/04/19 10:58:41;;;;;;;3.50;1.30;;;;;;;21.54;35.74;99940.92;117268;1182;21875;-49
2022/04/19 11:01:39;;;;;;;2.30;1.10;;;;;;;21.84;35.88;99942.58;117344;1186;21966;-56
2022/04/19 11:04:11;;;;;;;4.30;1.30;;;;;;;22.03;35.36;99944.34;117114;1186;21884;-49
2022/04/19 11:06:42;;;;;;;3.90;1.00;;;;;;;22.27;35.63;99939.38;117327;1185;22928;-49
2022/04/19 11:09:26;;;;;;;3.80;1.10;;;;;;;22.58;35.74;99938.34;117124;1180;23034;-48
2022/04/19 11:11:56;;;;;;;1.90;1.10;;;;;;;22.73;34.99;99943.20;117335;1186;22752;-48
2022/04/19 11:14:42;;;;;;;2.80;1.40;;;;;;;22.61;35.07;99938.89;117285;1186;21856;-48
2022/04/19 11:17:18;;;;;;;1.70;1.00;;;;;;;22.66;35.19;99934.06;117319;1186;24195;-56
2022/04/19 11:19:52;;;;;;;1.50;1.10;;;;;;;22.77;35.21;99928.45;117335;1186;24356;-56
2022/04/19 11:22:29;;;;;;;3.50;1.10;;;;;;;22.96;35.02;99933.54;117268;1185;24236;-48
2022/04/19 11:24:59;;;;;;;2.50;1.30;;;;;;;23.15;35.49;99922.71;117088;1186;22918;-49
2022/04/19 11:27:53;;;;;;;2.50;1.20;;;;;;;23.34;34.87;99919.76;117134;1186;22958;-49
2022/04/19 11:30:25;;;;;;;2.10;1.10;;;;;;;23.21;34.18;99924.46;117322;1186;21857;-48
2022/04/19 11:32:58;;;;;;;1.10;0.80;;;;;;;22.82;33.62;99922.88;117310;1185;21863;-49
2022/04/19 11:35:29;;;;;;;2.00;1.00;;;;;;;22.59;34.05;99917.70;117099;1186;22959;-49
2022/04/19 11:37:57;;;;;;;2.60;1.40;;;;;;;22.58;33.89;99916.86;117303;1186;23583;-48
2022/04/19 11:48:50;;;;;;;2.90;1.30;;;;;;;22.97;34.51;99907.36;117344;1185;23582;-49
2022/04/19 11:51:20;;;;;;;3.10;1.10;;;;;;;23.15;34.46;99905.86;117247;1183;21859;-57
2022/04/19 11:53:50;;;;;;;1.90;1.00;;;;;;;23.21;33.75;99905.25;117382;1186;21857;-49
2022/04/19 11:56:19;;;;;;;1.70;0.80;;;;;;;23.07;32.93;99905.56;117194;1186;21996;-49
2022/04/19 11:58:50;;;;;;;1.80;1.10;;;;;;;22.79;33.25;99903.10;117120;1185;23652;-49
2022/04/19 12:01:20;;;;;;;2.70;1.10;;;;;;;22.62;32.95;99893.70;117235;1185;21869;-57
2022/04/19 12:04:11;;;;;;;2.00;1.00;;;;;;;22.64;33.48;99891.62;117284;1186;23565;-50
2022/04/19 12:06:46;;;;;;;3.80;1.50;;;;;;;22.69;33.44;99891.64;117310;1186;23563;-57
2022/04/19 12:09:16;;;;;;;2.30;1.00;;;;;;;22.64;33.44;99887.47;117265;1185;23116;-49
2022/04/19 12:11:48;;;;;;;3.30;1.10;;;;;;;22.72;33.52;99886.41;117325;1186;22325;-57
2022/04/19 12:14:27;;;;;;;1.00;0.70;;;;;;;22.81;33.29;99881.99;117273;1186;21862;-49
2022/04/19 12:17:03;;;;;;;2.40;1.10;;;;;;;22.75;32.57;99881.54;117304;1186;21868;-57
2022/04/19 12:19:38;;;;;;;8.90;1.20;;;;;;;22.65;32.97;99872.40;117263;1186;21861;-49
2022/04/19 12:22:27;;;;;;;2.50;1.00;;;;;;;22.83;32.57;99871.88;117227;1186;21859;-49
2022/04/19 12:24:58;;;;;;;1.80;1.30;;;;;;;22.84;32.54;99875.90;117313;1186;23560;-49
2022/04/19 12:27:37;;;;;;;2.50;1.30;;;;;;;22.81;32.45;99872.14;117171;1188;22833;-49
2022/04/19 12:30:12;;;;;;;2.40;1.30;;;;;;;22.60;32.07;99873.09;117261;1186;23600;-49
2022/04/19 12:32:51;;;;;;;2.40;1.20;;;;;;;22.39;32.48;99871.66;117351;1185;21856;-57
2022/04/19 12:35:23;;;;;;;2.50;1.10;;;;;;;22.24;32.70;99865.23;117263;1186;21971;-49